x

Buoy E01 - Central Maine Shelf (44032) Wave Buoy

12:04am - Tue 9th Feb 2016 All times are EST. -5 hours from GMT.

  • Sig Wave height 9.5ft
  • Peak Period 11s
  • Wind
    31mph, 43mph gusts
  • Sea Temp 42°f
  • Air Temp 23°f
  • Sea Pressure 1006mb
  • Buoy E01 - Central Maine Shelf
  • Buoy E01 - Central Maine Shelf

More Historic Weather Station data

Upgrade to MSW Pro to gain access to the past 30 days of data for over 8000 Wavebouys and Weather Stations around the globe.

Join Pro

Comparision Forecast

View Surf forecast
   
Tue 02/09 12:04am 9.5ft 11s 31 43 mph 1006mb 42f 23f
Mon 02/08 11:04pm 9.5ft 11s 34 45 mph 1005.4mb 42f 23f
10:04pm 11ft 11s 29 36 mph 1006.2mb 43f 24f
9:04pm 8.5ft 11s 29 47 mph 1006.3mb 43f 24f
8:04pm 11ft 11s 31 43 mph 1006.1mb 43f 24f
7:04pm 10.5ft 11s 27 34 mph 1005.9mb 42f 24f
6:04pm 9ft 8s 31 40 mph 1005.2mb 42f 24f
5:04pm 10.5ft 11s 29 34 mph 1005.1mb 42f 24f
4:04pm 11ft 11s 34 45 mph 1005.6mb 42f 24f
3:04pm 10ft 11s 29 36 mph 1006.6mb 42f 23f
2:04pm 11ft 11s 31 45 mph 1007.2mb 42f 24f
1:04pm 8.5ft 8s 29 36 mph 1008.2mb 42f 23f
12:04pm 9ft 8s 29 34 mph 1010mb 42f 23f
11:04am 9.5ft 8s 31 38 mph 1010.1mb 42f 23f
10:04am 10ft 8s 31 38 mph 1011.1mb 42f 23f
9:04am 9.5ft 8s 34 43 mph 1011.7mb 42f 23f
8:04am 8.5ft 8s 31 40 mph 1013mb 42f 23f
7:04am 8ft 6s 31 38 mph 1013.5mb 42f 23f
6:04am 7.5ft 6s 34 45 mph 1014.3mb 42f 24f
5:04am 7ft 6s 29 38 mph 1015.5mb 42f 25f
4:04am 7ft 6s 27 34 mph 1016.8mb 42f 26f
3:04am 5ft 5s 29 34 mph 1017.3mb 42f 26f
2:04am 6ft 5s 29 45 mph 1018.2mb 42f 28f
1:04am 6.5ft 5s 27 34 mph 1019.3mb 42f 29f
12:04am 5ft 5s 27 36 mph 1019.8mb 42f 31f
Sun 02/07 11:04pm 5ft 5s 29 40 mph 1019.7mb 42f 33f
10:04pm 4ft 4s 27 31 mph 1020.1mb 42f 34f
9:04pm 3ft 3s 25 29 mph 1020.5mb 42f 36f
8:04pm 2ft 3s 16 20 mph 1020.7mb 42f 38f
7:04pm 1.6ft 4s 13 16 mph 1021mb 42f 39f
6:04pm 2ft 5s 13 16 mph 1020.6mb 43f 39f
5:04pm 3ft 11s 13 16 mph 1020.1mb 43f 39f
4:04pm 2.5ft 11s 11 13 mph 1020mb 43f 41f
3:04pm 2.5ft 5s 4 7 mph 1020.2mb 43f 41f
2:04pm 2.5ft 5s 11 13 mph 1019.7mb 43f 41f
1:04pm 3ft 5s 11 13 mph 1019.9mb 42f 40f
12:04pm 3.5ft 6s 13 16 mph 1018.8mb 42f 39f
11:04am 4ft 5s 13 16 mph 1019.2mb 42f 39f
10:04am 4.5ft 6s 16 20 mph 1019mb 42f 38f
9:04am 4.5ft 6s 18 20 mph 1018.6mb 42f 38f
8:04am 4.5ft 6s 18 22 mph 1018.6mb 42f 37f
7:04am 5.5ft 6s 20 25 mph 1018.2mb 42f 39f
6:04am 5.5ft 6s 25 29 mph 1017.8mb 42f 39f
5:04am 6.5ft 6s 22 29 mph 1017.9mb 42f 39f
4:04am 6ft 6s 22 27 mph 1017.9mb 42f 38f
3:04am 6ft 6s 22 27 mph 1018.2mb 42f 38f
2:04am 7ft 6s 25 27 mph 1018.7mb 42f 39f
1:04am 7ft 6s 25 29 mph 1019.2mb 42f 39f
12:04am 7.5ft 6s 27 34 mph 1019.8mb 42f 39f
Sat 02/06 11:04pm 7ft 6s 25 31 mph 1020.5mb 42f 39f
10:04pm 8ft 8s 27 34 mph 1020.6mb 42f 39f
9:04pm 7.5ft 6s 25 31 mph 1021.4mb 42f 39f
8:04pm 7ft 6s 25 31 mph 1021.8mb 42f 39f
7:04pm 7ft 5s 25 31 mph 1022mb 42f 39f
6:04pm 6ft 5s 25 31 mph 1022.1mb 42f 39f
5:04pm 6ft 5s 27 31 mph 1022.1mb 42f 38f
4:04pm 5ft 5s 25 29 mph 1022.4mb 42f 38f
3:04pm 5ft 5s 22 29 mph 1022.8mb 42f 37f
2:04pm 5ft 5s 22 27 mph 1022.9mb 42f 37f
1:04pm 5ft 5s 22 27 mph 1023.5mb 42f 36f
12:04pm 4.5ft 11s 20 25 mph 1024.2mb 42f 34f
11:04am 3.5ft 11s 20 25 mph 1025.1mb 42f 34f
10:04am 3ft 11s 11 13 mph 1025.6mb 42f 33f
9:04am 3ft 11s 7 11 mph 1025.5mb 42f 31f
8:04am 3ft 11s 13 16 mph 1025.4mb 42f 30f
7:04am 4ft 11s 13 18 mph 1025mb 42f 28f
6:04am 4ft 11s 13 18 mph 1024.5mb 42f 27f
5:04am 3.5ft 11s 16 20 mph 1023.7mb 42f 27f
4:04am 2.5ft 4s 18 22 mph 1023.2mb 42f 27f
3:04am 3.5ft 4s 22 29 mph 1022.6mb 42f 27f
2:04am 3.5ft 4s 25 29 mph 1021.8mb 42f 26f
1:04am 3.5ft 4s 25 31 mph 1020.9mb 42f 25f
12:04am 3.5ft 3s 20 25 mph 1020.5mb 42f 24f
Fri 02/05 11:04pm 3ft 3s 18 25 mph 1019.4mb 42f 25f
10:04pm 3ft 3s 22 29 mph 1017.8mb 42f 27f
9:04pm 3.5ft 4s 18 25 mph 1016.8mb 42f 28f
8:04pm 3.5ft 4s 20 27 mph 1015.6mb 42f 29f
7:04pm 4.5ft 5s 25 29 mph 1014.3mb 42f 29f
6:04pm 5.5ft 5s 31 36 mph 1012.1mb 42f 30f
5:04pm 4.5ft 5s 34 38 mph 1011.1mb 42f 30f
4:04pm 4ft 4s 27 34 mph 1011.5mb 42f 31f
3:04pm 5ft 4s 27 38 mph 1011.2mb 42f 32f
2:04pm 5ft 8s 27 34 mph 1010.7mb 42f 32f
1:04pm 5ft 11s 25 29 mph 1011.6mb 42f 32f
12:04pm 5ft 11s 27 31 mph 1013.4mb 42f 32f
11:04am 4.5ft 8s 22 29 mph 1014.5mb 42f 33f
10:04am 5ft 11s 22 25 mph 1017.1mb 43f 33f
9:04am 4ft 4s 27 34 mph 1015mb 43f 33f
8:04am 5ft 11s 22 27 mph 1017mb 43f 34f
7:04am 6ft 11s 20 25 mph 1016.7mb 43f 34f